ンジャメナ の空港の天気 - METARとTAF

ンジャメナ国際空港 ( FTTJ / NDJ ) - チャド ンジャメナ
飛行場実況気象(Metar)
観測時間04/21 17:00 WAT (04/21 16:00 UTC)
風向・風速北 5m/s
視程10km以上
天気現象
なし
気温41℃
湿度15%
気圧1003hPa
METARFTTJ 211600Z 36009KT 360V070 CAVOK 41/09 Q1003 NOSIG
過去の天気等 Google飛行場航空写真 Wunderground天気予報

過去48時間のMETAR

飛行場予報(TAF)
発表時間: 4/21 12:00 WAT (4/21 11:00 UTC)
予報対象時間: 21日13時 WAT ~ 22日19時 WAT
風向・風速不定 2m/s
視程6000m
なし
22日1時 WAT ~ 22日7時 WAT に一時的に
視程3500m
天気現象風塵
22日9時 WAT ~ 22日15時 WAT に一時的に
風向・風速東北東 5m/s
TAF COR FTTJ 211100Z 2112/2218 VRB04KT 6000 NSC
TEMPO 2200/2206 3500 DU
TEMPO 2208/2214 06010KT